sensor_id;sensor_type;location;lat;lon;timestamp;P1;durP1;ratioP1;P2;durP2;ratioP2
12359;SDS011;6244;51.460;7.090;2023-07-29T00:04:54;4.32;;;3.40;;
12359;SDS011;6244;51.460;7.090;2023-07-29T00:09:50;4.88;;;3.38;;
12359;SDS011;6244;51.460;7.090;2023-07-29T00:14:47;4.40;;;3.67;;
12359;SDS011;6244;51.460;7.090;2023-07-29T00:19:45;5.00;;;3.67;;
12359;SDS011;6244;51.460;7.090;2023-07-29T00:24:41;8.73;;;4.28;;
12359;SDS011;6244;51.460;7.090;2023-07-29T00:29:38;5.68;;;4.00;;
12359;SDS011;6244;51.460;7.090;2023-07-29T00:34:34;6.70;;;3.60;;
12359;SDS011;6244;51.460;7.090;2023-07-29T00:39:32;5.30;;;3.75;;
12359;SDS011;6244;51.460;7.090;2023-07-29T00:44:29;5.65;;;3.70;;
12359;SDS011;6244;51.460;7.090;2023-07-29T00:49:26;5.95;;;3.80;;
12359;SDS011;6244;51.460;7.090;2023-07-29T00:54:23;4.18;;;3.40;;
12359;SDS011;6244;51.460;7.090;2023-07-29T00:59:21;4.70;;;3.42;;
12359;SDS011;6244;51.460;7.090;2023-07-29T01:04:18;5.13;;;3.85;;
12359;SDS011;6244;51.460;7.090;2023-07-29T01:09:17;5.28;;;3.72;;
12359;SDS011;6244;51.460;7.090;2023-07-29T01:14:25;6.50;;;3.90;;
12359;SDS011;6244;51.460;7.090;2023-07-29T01:19:34;11.90;;;3.53;;
12359;SDS011;6244;51.460;7.090;2023-07-29T01:24:40;4.90;;;3.58;;
12359;SDS011;6244;51.460;7.090;2023-07-29T01:29:37;7.03;;;4.07;;
12359;SDS011;6244;51.460;7.090;2023-07-29T01:34:35;6.72;;;4.22;;
12359;SDS011;6244;51.460;7.090;2023-07-29T01:39:42;6.32;;;4.05;;
12359;SDS011;6244;51.460;7.090;2023-07-29T01:44:41;5.25;;;3.83;;
12359;SDS011;6244;51.460;7.090;2023-07-29T01:49:38;4.82;;;3.65;;
12359;SDS011;6244;51.460;7.090;2023-07-29T01:54:35;6.15;;;3.92;;
12359;SDS011;6244;51.460;7.090;2023-07-29T01:59:32;5.63;;;4.00;;
12359;SDS011;6244;51.460;7.090;2023-07-29T02:04:29;4.85;;;3.53;;
12359;SDS011;6244;51.460;7.090;2023-07-29T02:09:25;4.32;;;3.33;;
12359;SDS011;6244;51.460;7.090;2023-07-29T02:14:22;3.63;;;3.13;;
12359;SDS011;6244;51.460;7.090;2023-07-29T02:19:20;5.10;;;3.65;;
12359;SDS011;6244;51.460;7.090;2023-07-29T02:24:17;5.32;;;4.10;;
12359;SDS011;6244;51.460;7.090;2023-07-29T02:29:13;4.78;;;3.60;;
12359;SDS011;6244;51.460;7.090;2023-07-29T02:34:10;5.88;;;4.00;;
12359;SDS011;6244;51.460;7.090;2023-07-29T02:39:08;5.18;;;3.80;;
12359;SDS011;6244;51.460;7.090;2023-07-29T02:44:04;6.75;;;3.80;;
12359;SDS011;6244;51.460;7.090;2023-07-29T02:49:01;6.82;;;3.47;;
12359;SDS011;6244;51.460;7.090;2023-07-29T02:53:59;5.80;;;3.67;;
12359;SDS011;6244;51.460;7.090;2023-07-29T02:58:57;5.82;;;4.10;;
12359;SDS011;6244;51.460;7.090;2023-07-29T03:03:53;5.28;;;3.40;;
12359;SDS011;6244;51.460;7.090;2023-07-29T03:08:50;6.55;;;4.05;;
12359;SDS011;6244;51.460;7.090;2023-07-29T03:13:46;4.93;;;3.65;;
12359;SDS011;6244;51.460;7.090;2023-07-29T03:18:44;5.50;;;3.70;;
12359;SDS011;6244;51.460;7.090;2023-07-29T03:23:41;4.78;;;3.60;;
12359;SDS011;6244;51.460;7.090;2023-07-29T03:28:39;5.40;;;4.00;;
12359;SDS011;6244;51.460;7.090;2023-07-29T03:33:36;7.60;;;3.92;;
12359;SDS011;6244;51.460;7.090;2023-07-29T03:38:34;4.90;;;3.85;;
12359;SDS011;6244;51.460;7.090;2023-07-29T03:43:34;4.43;;;3.77;;
12359;SDS011;6244;51.460;7.090;2023-07-29T03:48:31;5.63;;;3.72;;
12359;SDS011;6244;51.460;7.090;2023-07-29T03:53:27;4.70;;;3.63;;
12359;SDS011;6244;51.460;7.090;2023-07-29T03:58:25;6.05;;;4.00;;
12359;SDS011;6244;51.460;7.090;2023-07-29T04:03:22;6.32;;;4.25;;
12359;SDS011;6244;51.460;7.090;2023-07-29T04:08:18;6.20;;;3.97;;
12359;SDS011;6244;51.460;7.090;2023-07-29T04:13:15;5.93;;;4.40;;
12359;SDS011;6244;51.460;7.090;2023-07-29T04:18:13;8.52;;;5.05;;
12359;SDS011;6244;51.460;7.090;2023-07-29T04:23:09;7.68;;;4.82;;
12359;SDS011;6244;51.460;7.090;2023-07-29T04:28:06;7.30;;;4.93;;
12359;SDS011;6244;51.460;7.090;2023-07-29T04:33:02;7.10;;;4.72;;
12359;SDS011;6244;51.460;7.090;2023-07-29T04:38:01;9.98;;;5.00;;
12359;SDS011;6244;51.460;7.090;2023-07-29T04:42:57;6.28;;;5.05;;
12359;SDS011;6244;51.460;7.090;2023-07-29T04:47:56;8.43;;;5.30;;
12359;SDS011;6244;51.460;7.090;2023-07-29T04:52:53;7.55;;;4.82;;
12359;SDS011;6244;51.460;7.090;2023-07-29T04:57:50;6.78;;;4.93;;
12359;SDS011;6244;51.460;7.090;2023-07-29T05:02:47;6.97;;;4.20;;
12359;SDS011;6244;51.460;7.090;2023-07-29T05:07:43;9.75;;;5.35;;
12359;SDS011;6244;51.460;7.090;2023-07-29T05:12:40;10.18;;;6.35;;
12359;SDS011;6244;51.460;7.090;2023-07-29T05:17:38;10.82;;;7.07;;
12359;SDS011;6244;51.460;7.090;2023-07-29T05:22:34;11.63;;;8.15;;
12359;SDS011;6244;51.460;7.090;2023-07-29T05:27:31;11.25;;;8.45;;
12359;SDS011;6244;51.460;7.090;2023-07-29T05:32:27;11.88;;;8.13;;
12359;SDS011;6244;51.460;7.090;2023-07-29T05:37:26;12.80;;;8.40;;
12359;SDS011;6244;51.460;7.090;2023-07-29T05:42:22;11.95;;;8.20;;
12359;SDS011;6244;51.460;7.090;2023-07-29T05:47:19;14.02;;;9.45;;
12359;SDS011;6244;51.460;7.090;2023-07-29T05:52:15;14.15;;;8.98;;
12359;SDS011;6244;51.460;7.090;2023-07-29T05:57:13;10.73;;;7.60;;
12359;SDS011;6244;51.460;7.090;2023-07-29T06:02:10;7.03;;;5.43;;
12359;SDS011;6244;51.460;7.090;2023-07-29T06:07:06;7.07;;;4.72;;
12359;SDS011;6244;51.460;7.090;2023-07-29T06:12:03;7.95;;;4.63;;
12359;SDS011;6244;51.460;7.090;2023-07-29T06:17:01;5.85;;;4.15;;
12359;SDS011;6244;51.460;7.090;2023-07-29T06:21:58;5.07;;;3.72;;
12359;SDS011;6244;51.460;7.090;2023-07-29T06:26:56;4.85;;;3.38;;
12359;SDS011;6244;51.460;7.090;2023-07-29T06:31:52;3.95;;;2.97;;
12359;SDS011;6244;51.460;7.090;2023-07-29T06:36:51;6.10;;;3.22;;
12359;SDS011;6244;51.460;7.090;2023-07-29T06:41:47;4.80;;;2.92;;
12359;SDS011;6244;51.460;7.090;2023-07-29T06:46:44;4.10;;;2.80;;
12359;SDS011;6244;51.460;7.090;2023-07-29T06:51:40;4.32;;;2.65;;
12359;SDS011;6244;51.460;7.090;2023-07-29T06:56:38;3.92;;;2.60;;
12359;SDS011;6244;51.460;7.090;2023-07-29T07:01:35;4.30;;;2.55;;
12359;SDS011;6244;51.460;7.090;2023-07-29T07:06:31;4.15;;;2.88;;
12359;SDS011;6244;51.460;7.090;2023-07-29T07:11:28;3.47;;;2.40;;
12359;SDS011;6244;51.460;7.090;2023-07-29T07:16:25;4.15;;;2.47;;
12359;SDS011;6244;51.460;7.090;2023-07-29T07:21:24;3.67;;;2.35;;
12359;SDS011;6244;51.460;7.090;2023-07-29T07:26:21;4.97;;;2.53;;
12359;SDS011;6244;51.460;7.090;2023-07-29T07:31:17;6.07;;;2.80;;
12359;SDS011;6244;51.460;7.090;2023-07-29T07:36:15;5.05;;;2.70;;
12359;SDS011;6244;51.460;7.090;2023-07-29T07:41:11;3.33;;;2.55;;
12359;SDS011;6244;51.460;7.090;2023-07-29T07:46:08;4.07;;;2.58;;
12359;SDS011;6244;51.460;7.090;2023-07-29T07:51:09;4.03;;;2.65;;
12359;SDS011;6244;51.460;7.090;2023-07-29T07:56:08;6.25;;;2.42;;
12359;SDS011;6244;51.460;7.090;2023-07-29T08:01:05;2.90;;;2.15;;
12359;SDS011;6244;51.460;7.090;2023-07-29T08:06:02;2.70;;;1.80;;
12359;SDS011;6244;51.460;7.090;2023-07-29T08:10:59;2.72;;;2.28;;
12359;SDS011;6244;51.460;7.090;2023-07-29T08:15:57;3.67;;;2.10;;
12359;SDS011;6244;51.460;7.090;2023-07-29T08:20:54;3.20;;;2.30;;
12359;SDS011;6244;51.460;7.090;2023-07-29T08:25:53;3.88;;;2.83;;
12359;SDS011;6244;51.460;7.090;2023-07-29T08:30:51;3.25;;;2.53;;
12359;SDS011;6244;51.460;7.090;2023-07-29T08:35:49;5.57;;;2.70;;
12359;SDS011;6244;51.460;7.090;2023-07-29T08:40:45;4.03;;;2.90;;
12359;SDS011;6244;51.460;7.090;2023-07-29T08:45:48;3.40;;;2.88;;
12359;SDS011;6244;51.460;7.090;2023-07-29T08:50:46;4.30;;;3.20;;
12359;SDS011;6244;51.460;7.090;2023-07-29T08:55:46;5.18;;;3.33;;
12359;SDS011;6244;51.460;7.090;2023-07-29T09:00:43;8.32;;;3.65;;
12359;SDS011;6244;51.460;7.090;2023-07-29T09:05:40;4.35;;;3.25;;
12359;SDS011;6244;51.460;7.090;2023-07-29T09:10:38;2.63;;;2.25;;
12359;SDS011;6244;51.460;7.090;2023-07-29T09:15:35;3.40;;;2.50;;
12359;SDS011;6244;51.460;7.090;2023-07-29T09:20:33;2.20;;;2.00;;
12359;SDS011;6244;51.460;7.090;2023-07-29T09:25:30;3.03;;;1.98;;
12359;SDS011;6244;51.460;7.090;2023-07-29T09:30:28;3.10;;;2.20;;
12359;SDS011;6244;51.460;7.090;2023-07-29T09:35:27;2.50;;;2.15;;
12359;SDS011;6244;51.460;7.090;2023-07-29T09:40:24;2.90;;;2.05;;
12359;SDS011;6244;51.460;7.090;2023-07-29T09:45:21;2.45;;;1.67;;
12359;SDS011;6244;51.460;7.090;2023-07-29T09:50:20;3.13;;;2.30;;
12359;SDS011;6244;51.460;7.090;2023-07-29T09:55:20;3.88;;;2.58;;
12359;SDS011;6244;51.460;7.090;2023-07-29T10:00:18;3.83;;;2.28;;
12359;SDS011;6244;51.460;7.090;2023-07-29T10:05:15;3.22;;;2.25;;
12359;SDS011;6244;51.460;7.090;2023-07-29T10:10:13;2.50;;;1.60;;
12359;SDS011;6244;51.460;7.090;2023-07-29T10:15:10;1.90;;;1.73;;
12359;SDS011;6244;51.460;7.090;2023-07-29T10:20:07;1.92;;;1.58;;
12359;SDS011;6244;51.460;7.090;2023-07-29T10:25:07;3.20;;;1.80;;
12359;SDS011;6244;51.460;7.090;2023-07-29T10:30:08;1.35;;;1.10;;
12359;SDS011;6244;51.460;7.090;2023-07-29T10:35:06;3.30;;;2.10;;
12359;SDS011;6244;51.460;7.090;2023-07-29T10:40:05;2.10;;;1.35;;
12359;SDS011;6244;51.460;7.090;2023-07-29T10:50:20;2.58;;;2.05;;
12359;SDS011;6244;51.460;7.090;2023-07-29T10:55:24;2.30;;;2.10;;
12359;SDS011;6244;51.460;7.090;2023-07-29T11:00:24;3.55;;;2.35;;
12359;SDS011;6244;51.460;7.090;2023-07-29T11:05:26;2.72;;;2.10;;
12359;SDS011;6244;51.460;7.090;2023-07-29T11:10:42;2.40;;;2.03;;
12359;SDS011;6244;51.460;7.090;2023-07-29T11:15:40;1.77;;;1.67;;
12359;SDS011;6244;51.460;7.090;2023-07-29T11:20:37;2.28;;;1.73;;
12359;SDS011;6244;51.460;7.090;2023-07-29T11:25:33;3.55;;;2.00;;
12359;SDS011;6244;51.460;7.090;2023-07-29T11:30:30;2.38;;;1.38;;
12359;SDS011;6244;51.460;7.090;2023-07-29T11:35:30;2.42;;;1.80;;
12359;SDS011;6244;51.460;7.090;2023-07-29T11:40:28;4.75;;;1.90;;
12359;SDS011;6244;51.460;7.090;2023-07-29T11:45:25;2.42;;;1.90;;
12359;SDS011;6244;51.460;7.090;2023-07-29T11:50:22;2.38;;;1.73;;
12359;SDS011;6244;51.460;7.090;2023-07-29T11:55:20;3.10;;;1.92;;
12359;SDS011;6244;51.460;7.090;2023-07-29T12:00:17;2.15;;;1.75;;
12359;SDS011;6244;51.460;7.090;2023-07-29T12:05:14;2.47;;;2.10;;
12359;SDS011;6244;51.460;7.090;2023-07-29T12:10:11;2.00;;;1.73;;
12359;SDS011;6244;51.460;7.090;2023-07-29T12:15:09;2.83;;;1.90;;
12359;SDS011;6244;51.460;7.090;2023-07-29T12:20:08;2.83;;;1.60;;
12359;SDS011;6244;51.460;7.090;2023-07-29T12:25:05;3.45;;;1.60;;
12359;SDS011;6244;51.460;7.090;2023-07-29T12:30:02;3.85;;;1.73;;
12359;SDS011;6244;51.460;7.090;2023-07-29T12:35:01;3.33;;;1.60;;
12359;SDS011;6244;51.460;7.090;2023-07-29T12:39:57;3.92;;;1.88;;
12359;SDS011;6244;51.460;7.090;2023-07-29T12:44:54;4.00;;;1.88;;
12359;SDS011;6244;51.460;7.090;2023-07-29T12:49:50;2.05;;;1.80;;
12359;SDS011;6244;51.460;7.090;2023-07-29T12:54:48;2.80;;;2.17;;
12359;SDS011;6244;51.460;7.090;2023-07-29T12:59:45;2.40;;;2.10;;
12359;SDS011;6244;51.460;7.090;2023-07-29T13:04:41;3.80;;;2.50;;
12359;SDS011;6244;51.460;7.090;2023-07-29T13:09:38;3.65;;;2.13;;
12359;SDS011;6244;51.460;7.090;2023-07-29T13:14:35;2.55;;;2.00;;
12359;SDS011;6244;51.460;7.090;2023-07-29T13:19:32;3.10;;;2.20;;
12359;SDS011;6244;51.460;7.090;2023-07-29T13:24:28;2.92;;;2.00;;
12359;SDS011;6244;51.460;7.090;2023-07-29T13:29:25;2.97;;;2.00;;
12359;SDS011;6244;51.460;7.090;2023-07-29T13:34:23;4.22;;;2.45;;
12359;SDS011;6244;51.460;7.090;2023-07-29T13:39:19;3.45;;;2.33;;
12359;SDS011;6244;51.460;7.090;2023-07-29T13:44:16;3.08;;;2.15;;
12359;SDS011;6244;51.460;7.090;2023-07-29T13:49:12;3.53;;;2.45;;
12359;SDS011;6244;51.460;7.090;2023-07-29T13:54:10;3.50;;;2.40;;
12359;SDS011;6244;51.460;7.090;2023-07-29T13:59:07;3.03;;;2.33;;
12359;SDS011;6244;51.460;7.090;2023-07-29T14:04:03;4.15;;;2.22;;
12359;SDS011;6244;51.460;7.090;2023-07-29T14:09:00;4.25;;;2.50;;
12359;SDS011;6244;51.460;7.090;2023-07-29T14:13:58;3.63;;;2.80;;
12359;SDS011;6244;51.460;7.090;2023-07-29T14:18:54;5.80;;;3.28;;
12359;SDS011;6244;51.460;7.090;2023-07-29T14:23:51;5.07;;;3.33;;
12359;SDS011;6244;51.460;7.090;2023-07-29T14:28:47;5.00;;;3.33;;
12359;SDS011;6244;51.460;7.090;2023-07-29T14:33:46;3.95;;;3.20;;
12359;SDS011;6244;51.460;7.090;2023-07-29T14:38:44;3.15;;;2.20;;
12359;SDS011;6244;51.460;7.090;2023-07-29T14:43:40;4.40;;;3.10;;
12359;SDS011;6244;51.460;7.090;2023-07-29T14:48:37;3.72;;;2.78;;
12359;SDS011;6244;51.460;7.090;2023-07-29T14:53:35;4.07;;;2.95;;
12359;SDS011;6244;51.460;7.090;2023-07-29T14:58:31;3.55;;;2.85;;
12359;SDS011;6244;51.460;7.090;2023-07-29T15:03:28;5.13;;;3.28;;
12359;SDS011;6244;51.460;7.090;2023-07-29T15:08:24;4.22;;;3.53;;
12359;SDS011;6244;51.460;7.090;2023-07-29T15:13:22;5.90;;;4.68;;
12359;SDS011;6244;51.460;7.090;2023-07-29T15:18:19;5.95;;;4.55;;
12359;SDS011;6244;51.460;7.090;2023-07-29T15:23:15;6.45;;;5.03;;
12359;SDS011;6244;51.460;7.090;2023-07-29T15:28:12;6.70;;;4.68;;
12359;SDS011;6244;51.460;7.090;2023-07-29T15:33:10;7.63;;;5.70;;
12359;SDS011;6244;51.460;7.090;2023-07-29T15:38:06;6.07;;;5.07;;
12359;SDS011;6244;51.460;7.090;2023-07-29T15:43:03;6.07;;;5.30;;
12359;SDS011;6244;51.460;7.090;2023-07-29T15:47:59;7.82;;;5.93;;
12359;SDS011;6244;51.460;7.090;2023-07-29T15:52:57;4.90;;;3.75;;
12359;SDS011;6244;51.460;7.090;2023-07-29T15:57:54;4.82;;;3.40;;
12359;SDS011;6244;51.460;7.090;2023-07-29T16:02:50;3.65;;;2.78;;
12359;SDS011;6244;51.460;7.090;2023-07-29T16:07:47;5.97;;;2.72;;
12359;SDS011;6244;51.460;7.090;2023-07-29T16:12:45;4.03;;;2.75;;
12359;SDS011;6244;51.460;7.090;2023-07-29T16:17:42;3.38;;;2.50;;
12359;SDS011;6244;51.460;7.090;2023-07-29T16:22:38;5.65;;;3.50;;
12359;SDS011;6244;51.460;7.090;2023-07-29T16:27:35;3.47;;;2.72;;
12359;SDS011;6244;51.460;7.090;2023-07-29T16:32:33;3.67;;;2.58;;
12359;SDS011;6244;51.460;7.090;2023-07-29T16:37:29;4.30;;;2.90;;
12359;SDS011;6244;51.460;7.090;2023-07-29T16:42:26;3.53;;;2.47;;
12359;SDS011;6244;51.460;7.090;2023-07-29T16:47:22;4.82;;;3.28;;
12359;SDS011;6244;51.460;7.090;2023-07-29T16:52:22;7.25;;;4.03;;
12359;SDS011;6244;51.460;7.090;2023-07-29T16:57:19;6.25;;;3.88;;
12359;SDS011;6244;51.460;7.090;2023-07-29T17:02:15;5.30;;;3.67;;
12359;SDS011;6244;51.460;7.090;2023-07-29T17:07:12;9.20;;;4.00;;
12359;SDS011;6244;51.460;7.090;2023-07-29T17:12:10;5.32;;;2.60;;
12359;SDS011;6244;51.460;7.090;2023-07-29T17:17:07;3.65;;;2.58;;
12359;SDS011;6244;51.460;7.090;2023-07-29T17:22:03;2.97;;;2.55;;
12359;SDS011;6244;51.460;7.090;2023-07-29T17:27:00;3.58;;;2.63;;
12359;SDS011;6244;51.460;7.090;2023-07-29T17:31:58;3.85;;;2.80;;
12359;SDS011;6244;51.460;7.090;2023-07-29T17:36:54;3.75;;;2.60;;
12359;SDS011;6244;51.460;7.090;2023-07-29T17:41:51;3.30;;;2.70;;
12359;SDS011;6244;51.460;7.090;2023-07-29T17:46:47;3.53;;;2.55;;
12359;SDS011;6244;51.460;7.090;2023-07-29T17:51:45;3.88;;;2.90;;
12359;SDS011;6244;51.460;7.090;2023-07-29T17:56:42;4.57;;;3.00;;
12359;SDS011;6244;51.460;7.090;2023-07-29T18:01:38;7.15;;;3.63;;
12359;SDS011;6244;51.460;7.090;2023-07-29T18:06:35;8.90;;;3.92;;
12359;SDS011;6244;51.460;7.090;2023-07-29T18:11:32;7.30;;;3.78;;
12359;SDS011;6244;51.460;7.090;2023-07-29T18:16:29;4.25;;;2.97;;
12359;SDS011;6244;51.460;7.090;2023-07-29T18:21:25;5.40;;;2.90;;
12359;SDS011;6244;51.460;7.090;2023-07-29T18:26:22;3.33;;;2.40;;
12359;SDS011;6244;51.460;7.090;2023-07-29T18:31:20;3.60;;;2.58;;
12359;SDS011;6244;51.460;7.090;2023-07-29T18:36:16;4.15;;;2.30;;
12359;SDS011;6244;51.460;7.090;2023-07-29T18:41:13;2.65;;;2.00;;
12359;SDS011;6244;51.460;7.090;2023-07-29T18:46:10;3.05;;;2.30;;
12359;SDS011;6244;51.460;7.090;2023-07-29T18:51:08;4.88;;;2.47;;
12359;SDS011;6244;51.460;7.090;2023-07-29T18:56:04;3.95;;;2.33;;
12359;SDS011;6244;51.460;7.090;2023-07-29T19:01:01;3.80;;;2.30;;
12359;SDS011;6244;51.460;7.090;2023-07-29T19:05:57;3.95;;;2.40;;
12359;SDS011;6244;51.460;7.090;2023-07-29T19:10:56;3.08;;;2.30;;
12359;SDS011;6244;51.460;7.090;2023-07-29T19:15:53;4.18;;;2.78;;
12359;SDS011;6244;51.460;7.090;2023-07-29T19:20:51;4.28;;;2.63;;
12359;SDS011;6244;51.460;7.090;2023-07-29T19:25:49;4.18;;;2.95;;
12359;SDS011;6244;51.460;7.090;2023-07-29T19:30:51;8.15;;;3.22;;
12359;SDS011;6244;51.460;7.090;2023-07-29T19:35:52;5.43;;;3.40;;
12359;SDS011;6244;51.460;7.090;2023-07-29T19:40:50;4.50;;;3.10;;
12359;SDS011;6244;51.460;7.090;2023-07-29T19:45:48;4.28;;;3.22;;
12359;SDS011;6244;51.460;7.090;2023-07-29T19:50:44;5.05;;;3.75;;
12359;SDS011;6244;51.460;7.090;2023-07-29T19:55:41;6.75;;;3.47;;
12359;SDS011;6244;51.460;7.090;2023-07-29T20:00:45;5.85;;;3.28;;
12359;SDS011;6244;51.460;7.090;2023-07-29T20:05:45;4.18;;;3.22;;
12359;SDS011;6244;51.460;7.090;2023-07-29T20:10:43;5.22;;;3.60;;
12359;SDS011;6244;51.460;7.090;2023-07-29T20:15:41;4.22;;;3.00;;
12359;SDS011;6244;51.460;7.090;2023-07-29T20:20:39;6.47;;;3.40;;
12359;SDS011;6244;51.460;7.090;2023-07-29T20:25:35;4.38;;;3.40;;
12359;SDS011;6244;51.460;7.090;2023-07-29T20:30:31;6.88;;;3.40;;
12359;SDS011;6244;51.460;7.090;2023-07-29T20:35:29;4.97;;;3.50;;
12359;SDS011;6244;51.460;7.090;2023-07-29T20:40:27;6.88;;;3.67;;
12359;SDS011;6244;51.460;7.090;2023-07-29T20:45:23;4.80;;;3.38;;
12359;SDS011;6244;51.460;7.090;2023-07-29T20:50:20;4.53;;;3.22;;
12359;SDS011;6244;51.460;7.090;2023-07-29T20:55:18;3.80;;;3.20;;
12359;SDS011;6244;51.460;7.090;2023-07-29T21:00:16;5.43;;;3.60;;
12359;SDS011;6244;51.460;7.090;2023-07-29T21:05:12;7.07;;;3.95;;
12359;SDS011;6244;51.460;7.090;2023-07-29T21:10:09;5.53;;;3.28;;
12359;SDS011;6244;51.460;7.090;2023-07-29T21:15:06;4.63;;;3.22;;
12359;SDS011;6244;51.460;7.090;2023-07-29T21:20:05;7.72;;;4.28;;
12359;SDS011;6244;51.460;7.090;2023-07-29T21:25:02;6.00;;;3.53;;
12359;SDS011;6244;51.460;7.090;2023-07-29T21:29:59;6.15;;;3.88;;
12359;SDS011;6244;51.460;7.090;2023-07-29T21:34:55;7.05;;;4.22;;
12359;SDS011;6244;51.460;7.090;2023-07-29T21:39:55;5.30;;;3.92;;
12359;SDS011;6244;51.460;7.090;2023-07-29T21:44:53;6.97;;;4.00;;
12359;SDS011;6244;51.460;7.090;2023-07-29T21:49:49;5.72;;;4.00;;
12359;SDS011;6244;51.460;7.090;2023-07-29T21:54:46;6.72;;;3.95;;
12359;SDS011;6244;51.460;7.090;2023-07-29T21:59:44;5.45;;;3.70;;
12359;SDS011;6244;51.460;7.090;2023-07-29T22:04:41;5.63;;;4.05;;
12359;SDS011;6244;51.460;7.090;2023-07-29T22:09:38;5.78;;;4.03;;
12359;SDS011;6244;51.460;7.090;2023-07-29T22:14:35;6.20;;;4.40;;
12359;SDS011;6244;51.460;7.090;2023-07-29T22:19:33;6.63;;;4.28;;
12359;SDS011;6244;51.460;7.090;2023-07-29T22:24:29;7.15;;;4.38;;
12359;SDS011;6244;51.460;7.090;2023-07-29T22:29:26;7.13;;;4.07;;
12359;SDS011;6244;51.460;7.090;2023-07-29T22:34:22;7.15;;;4.07;;
12359;SDS011;6244;51.460;7.090;2023-07-29T22:39:20;6.07;;;3.85;;
12359;SDS011;6244;51.460;7.090;2023-07-29T22:44:17;5.70;;;4.13;;
12359;SDS011;6244;51.460;7.090;2023-07-29T22:49:13;7.88;;;4.35;;
12359;SDS011;6244;51.460;7.090;2023-07-29T22:54:10;5.90;;;3.90;;
12359;SDS011;6244;51.460;7.090;2023-07-29T22:59:08;7.65;;;4.32;;
12359;SDS011;6244;51.460;7.090;2023-07-29T23:04:04;5.07;;;3.83;;
12359;SDS011;6244;51.460;7.090;2023-07-29T23:09:01;6.57;;;3.92;;
12359;SDS011;6244;51.460;7.090;2023-07-29T23:13:57;5.20;;;3.33;;
12359;SDS011;6244;51.460;7.090;2023-07-29T23:18:55;6.53;;;3.80;;
12359;SDS011;6244;51.460;7.090;2023-07-29T23:23:51;7.05;;;3.95;;
12359;SDS011;6244;51.460;7.090;2023-07-29T23:28:48;7.22;;;4.20;;
12359;SDS011;6244;51.460;7.090;2023-07-29T23:33:45;6.10;;;4.10;;
12359;SDS011;6244;51.460;7.090;2023-07-29T23:38:42;5.75;;;3.92;;
12359;SDS011;6244;51.460;7.090;2023-07-29T23:43:39;6.53;;;3.90;;
12359;SDS011;6244;51.460;7.090;2023-07-29T23:48:35;10.00;;;3.97;;
12359;SDS011;6244;51.460;7.090;2023-07-29T23:53:32;7.95;;;4.07;;
12359;SDS011;6244;51.460;7.090;2023-07-29T23:58:30;6.93;;;3.85;;
